Time;durP1;ratioP1;P1;durP2;ratioP2;P2;SDS_P1;SDS_P2;PMS_P1;PMS_P2;Temp;Humidity;BMP_temperature;BMP_pressure;BME280_temperature;BME280_humidity;BME280_pressure;Samples;Min_cycle;Max_cycle;Signal;HPM_P1;HPM_P2
2022/10/19 00:08:05;;;;;;;3.35;2.78;;;;;;;17.39;100.00;102582.75;20848967;28;20053;-74
2022/10/19 00:18:07;;;;;;;2.83;2.30;;;;;;;17.50;100.00;102600.97;20822882;28;20140;-74
2022/10/19 00:28:09;;;;;;;2.67;2.13;;;;;;;17.51;100.00;102596.47;20838278;28;20144;-74
2022/10/19 00:38:10;;;;;;;3.67;2.35;;;;;;;17.50;100.00;102606.38;20881010;28;20067;-74
2022/10/19 00:48:15;;;;;;;3.28;2.30;;;;;;;17.50;100.00;102602.81;20873321;28;20053;-74
2022/10/19 00:58:16;;;;;;;3.20;2.00;;;;;;;17.50;100.00;102610.91;20886717;28;20049;-74
2022/10/19 01:08:18;;;;;;;3.53;2.10;;;;;;;17.49;100.00;102603.78;20887513;28;20052;-74
2022/10/19 01:18:31;;;;;;;2.75;1.80;;;;;;;17.48;100.00;102602.91;20901322;28;20447;-74
2022/10/19 01:29:05;;;;;;;2.80;2.22;;;;;;;17.48;100.00;102605.59;20869315;28;20540;-74
2022/10/19 01:39:22;;;;;;;3.05;2.30;;;;;;;17.47;100.00;102603.84;20871101;28;20052;-74
2022/10/19 01:49:47;;;;;;;2.70;2.00;;;;;;;17.48;100.00;102612.81;20863493;28;20065;-74
2022/10/19 01:59:48;;;;;;;2.40;1.90;;;;;;;17.47;100.00;102609.25;20861162;28;20049;-78
2022/10/19 02:09:50;;;;;;;2.42;1.70;;;;;;;17.20;100.00;102556.06;20881081;28;20075;-74
2022/10/19 02:19:52;;;;;;;2.67;1.98;;;;;;;17.46;100.00;102599.44;20879340;28;20049;-74
2022/10/19 02:29:54;;;;;;;2.13;1.73;;;;;;;17.32;100.00;102556.31;20877082;28;20052;-74
2022/10/19 02:39:56;;;;;;;1.83;1.52;;;;;;;17.17;100.00;102534.72;20881726;28;20049;-74
2022/10/19 02:49:57;;;;;;;2.80;2.00;;;;;;;17.07;100.00;102506.66;20895254;28;20052;-74
2022/10/19 02:59:59;;;;;;;2.00;1.80;;;;;;;17.44;100.00;102563.66;20881716;28;20056;-74
2022/10/19 03:10:01;;;;;;;2.50;1.67;;;;;;;17.23;100.00;102534.41;20887219;28;20048;-74
2022/10/19 03:20:03;;;;;;;2.30;1.60;;;;;;;17.27;100.00;102544.97;20887585;28;20540;-74
2022/10/19 03:30:04;;;;;;;1.77;1.33;;;;;;;17.39;100.00;102573.84;20886224;28;20056;-74
2022/10/19 03:40:06;;;;;;;1.85;1.27;;;;;;;17.40;100.00;102575.56;20883925;28;20424;-74
2022/10/19 03:50:10;;;;;;;2.22;1.50;;;;;;;17.42;100.00;102584.41;20866344;28;20520;-75
2022/10/19 04:00:12;;;;;;;1.90;1.50;;;;;;;17.42;100.00;102597.88;20886450;28;20067;-74
2022/10/19 04:10:13;;;;;;;2.25;1.50;;;;;;;17.34;100.00;102581.31;20913420;28;20049;-74
2022/10/19 04:20:15;;;;;;;2.33;1.20;;;;;;;17.42;100.00;102591.63;20895360;28;20128;-74
2022/10/19 04:30:16;;;;;;;1.98;1.40;;;;;;;17.30;100.00;102563.63;20843164;28;20051;-74
2022/10/19 04:40:18;;;;;;;1.27;0.90;;;;;;;17.43;100.00;102587.97;20858505;28;20131;-76
2022/10/19 04:50:19;;;;;;;1.50;1.10;;;;;;;17.37;100.00;102578.44;20858844;28;20055;-74
2022/10/19 05:00:29;;;;;;;2.63;1.35;;;;;;;17.46;100.00;102585.97;20856436;28;20052;-75
2022/10/19 05:10:30;;;;;;;1.75;0.95;;;;;;;17.51;100.00;102583.84;20876708;28;20413;-75
2022/10/19 05:20:31;;;;;;;3.72;1.63;;;;;;;17.52;100.00;102572.13;20886945;28;20060;-75
2022/10/19 05:30:33;;;;;;;1.35;0.93;;;;;;;17.53;100.00;102571.16;20864788;28;20478;-75
2022/10/19 05:40:34;;;;;;;1.40;0.80;;;;;;;17.54;100.00;102569.34;20797843;28;20111;-75
2022/10/19 05:50:36;;;;;;;1.63;0.90;;;;;;;17.54;100.00;102562.13;20856796;28;20049;-74
2022/10/19 06:00:37;;;;;;;1.17;0.90;;;;;;;17.43;100.00;102559.22;20868234;28;20072;-76
2022/10/19 06:10:39;;;;;;;1.52;1.00;;;;;;;17.54;100.00;102575.59;20874910;28;20487;-75
2022/10/19 06:20:41;;;;;;;1.58;0.85;;;;;;;17.56;100.00;102588.09;20874840;28;20774;-74
2022/10/19 06:30:42;;;;;;;1.25;0.80;;;;;;;17.56;100.00;102601.56;20864235;28;20417;-74
2022/10/19 06:40:44;;;;;;;2.30;1.58;;;;;;;17.53;100.00;102603.47;20862414;28;20055;-75
2022/10/19 06:50:46;;;;;;;0.98;0.70;;;;;;;17.58;100.00;102615.81;20856383;28;20067;-74
2022/10/19 07:00:54;;;;;;;1.60;1.15;;;;;;;17.58;100.00;102624.75;20845511;28;20103;-75
2022/10/19 07:11:00;;;;;;;1.45;1.00;;;;;;;17.57;100.00;102622.16;20876549;28;20468;-75
2022/10/19 07:21:05;;;;;;;2.72;0.90;;;;;;;17.56;100.00;102642.84;20853667;28;20144;-75
2022/10/19 07:31:09;;;;;;;2.00;1.07;;;;;;;17.53;100.00;102638.50;20830678;28;20045;-74
2022/10/19 07:41:13;;;;;;;2.05;0.80;;;;;;;17.52;100.00;102639.44;20850674;28;20050;-74
2022/10/19 07:51:15;;;;;;;3.22;1.10;;;;;;;17.21;100.00;102595.50;20846726;28;20049;-74
2022/10/19 08:01:20;;;;;;;1.83;1.02;;;;;;;17.21;100.00;102595.50;20847179;28;20079;-75
2022/10/19 08:11:27;;;;;;;1.85;1.00;;;;;;;17.48;100.00;102640.59;20840496;28;20417;-74
2022/10/19 08:21:29;;;;;;;1.45;0.90;;;;;;;17.48;100.00;102645.97;20834170;28;20397;-74
2022/10/19 08:31:31;;;;;;;1.58;0.90;;;;;;;17.48;100.00;102643.28;20837122;28;20045;-74
2022/10/19 08:41:39;;;;;;;1.60;1.00;;;;;;;17.47;100.00;102628.09;20834584;28;20048;-74
2022/10/19 08:51:42;;;;;;;1.40;0.70;;;;;;;17.21;100.00;102571.25;20830305;28;20049;-73
2022/10/19 09:01:58;;;;;;;1.42;1.05;;;;;;;17.47;100.00;102606.56;20860609;28;20456;-74
2022/10/19 09:12:05;;;;;;;3.58;0.82;;;;;;;17.48;100.00;102619.06;20833703;28;20048;-74
2022/10/19 09:22:13;;;;;;;1.63;0.70;;;;;;;17.30;100.00;102572.56;20810975;28;20064;-75
2022/10/19 09:32:27;;;;;;;2.28;0.70;;;;;;;17.59;100.00;102618.41;20835470;28;20140;-74
2022/10/19 09:42:31;;;;;;;2.97;0.80;;;;;;;17.60;100.00;102614.75;20842602;28;20124;-75
2022/10/19 09:52:38;;;;;;;2.45;0.98;;;;;;;17.64;100.00;102612.72;20841669;28;20053;-74
2022/10/19 10:02:47;;;;;;;1.33;0.85;;;;;;;17.45;100.00;102576.16;20835873;28;20409;-73
2022/10/19 10:12:50;;;;;;;1.48;0.65;;;;;;;17.66;100.00;102600.91;20864052;28;20123;-73
2022/10/19 10:22:56;;;;;;;1.65;0.73;;;;;;;17.47;100.00;102552.69;20863869;28;20064;-74
2022/10/19 10:32:57;;;;;;;1.48;0.52;;;;;;;17.67;100.00;102570.34;20825105;28;20053;-73
2022/10/19 10:43:22;;;;;;;2.28;0.60;;;;;;;17.68;100.00;102563.13;20852957;28;20075;-73
2022/10/19 10:53:31;;;;;;;2.07;0.80;;;;;;;17.68;100.00;102566.69;20837584;28;20053;-74
2022/10/19 11:03:34;;;;;;;1.50;0.50;;;;;;;17.40;100.00;102494.81;20796926;28;20053;-75
2022/10/19 11:13:41;;;;;;;6.05;3.83;;;;;;;17.76;100.00;102533.00;20790673;28;20063;-74
2022/10/19 11:23:58;;;;;;;5.97;3.80;;;;;;;17.77;100.00;102527.53;20838008;28;20056;-74
2022/10/19 11:34:09;;;;;;;5.45;3.65;;;;;;;17.74;100.00;102521.47;20841791;28;20537;-75
2022/10/19 11:44:26;;;;;;;4.70;3.45;;;;;;;17.65;100.00;102495.97;20847465;28;20049;-75
2022/10/19 11:54:36;;;;;;;4.63;3.28;;;;;;;17.67;100.00;102488.66;20841926;28;20057;-75
2022/10/19 12:04:42;;;;;;;5.90;3.78;;;;;;;17.63;100.00;102474.53;20835627;28;20048;-75
2022/10/19 12:14:45;;;;;;;4.13;3.25;;;;;;;17.61;100.00;102462.09;20832939;28;20048;-75
2022/10/19 12:24:49;;;;;;;4.63;3.83;;;;;;;17.42;100.00;102420.19;20841574;28;20044;-75
2022/10/19 12:35:12;;;;;;;4.40;3.38;;;;;;;17.50;100.00;102411.66;20834646;28;22907;-76
2022/10/19 12:45:25;;;;;;;4.40;3.10;;;;;;;17.58;100.00;102409.31;20797371;28;20049;-75
2022/10/19 12:55:33;;;;;;;4.82;2.55;;;;;;;17.59;100.00;102412.88;20828998;28;20139;-75
2022/10/19 13:05:35;;;;;;;4.53;2.63;;;;;;;17.52;100.00;102367.47;20813244;28;20053;-75
2022/10/19 13:15:36;;;;;;;3.47;2.42;;;;;;;17.65;100.00;102367.56;20841861;28;20064;-75
2022/10/19 13:25:39;;;;;;;3.75;2.45;;;;;;;17.25;100.00;102284.84;20825822;28;20047;-75
2022/10/19 13:35:41;;;;;;;3.22;2.20;;;;;;;17.69;100.00;102339.47;20839107;28;20409;-75
2022/10/19 13:45:42;;;;;;;4.15;2.33;;;;;;;17.72;100.00;102330.34;20855605;28;20072;-75
2022/10/19 13:56:35;;;;;;;5.75;2.10;;;;;;;17.58;100.00;102285.44;20839517;28;20056;-74
2022/10/19 14:07:04;;;;;;;3.00;2.30;;;;;;;17.73;100.00;102299.75;20806942;28;21102;-74
2022/10/19 14:17:13;;;;;;;4.05;2.30;;;;;;;17.61;100.00;102266.41;20814914;28;20045;-74
2022/10/19 14:27:22;;;;;;;5.35;2.50;;;;;;;17.72;100.00;102265.69;20831803;28;20136;-75
2022/10/19 14:37:25;;;;;;;3.08;2.30;;;;;;;17.75;100.00;102264.63;20835283;28;20049;-73
2022/10/19 14:47:29;;;;;;;3.08;2.50;;;;;;;17.44;100.00;102208.28;20840272;28;20090;-73
2022/10/19 14:57:34;;;;;;;3.65;2.10;;;;;;;16.35;100.00;102069.97;20807187;28;20041;-74
2022/10/19 15:07:36;;;;;;;3.17;2.22;;;;;;;17.76;100.00;102258.25;20767153;28;20056;-73
2022/10/19 15:17:50;;;;;;;3.55;2.35;;;;;;;17.72;100.00;102254.03;20772695;28;20718;-74
2022/10/19 15:27:52;;;;;;;4.18;2.50;;;;;;;17.76;100.00;102251.06;20839212;28;20056;-74
2022/10/19 15:38:04;;;;;;;3.40;2.25;;;;;;;17.77;100.00;102255.47;20840684;28;20055;-74
2022/10/19 15:48:09;;;;;;;3.30;2.50;;;;;;;17.76;100.00;102256.44;20835373;28;20045;-74
2022/10/19 15:58:11;;;;;;;4.97;3.30;;;;;;;17.75;100.00;102241.25;20838104;28;20063;-74
2022/10/19 16:08:12;;;;;;;3.53;2.80;;;;;;;17.61;100.00;102212.53;20839443;28;20128;-73
2022/10/19 16:18:14;;;;;;;4.00;2.90;;;;;;;17.42;100.00;102177.91;20829520;28;20053;-74
2022/10/19 16:28:16;;;;;;;4.90;2.83;;;;;;;17.65;100.00;102207.78;20838084;28;20549;-74
2022/10/19 16:38:17;;;;;;;4.43;2.83;;;;;;;17.63;100.00;102193.56;20838567;28;20498;-73
2022/10/19 16:48:19;;;;;;;6.75;2.55;;;;;;;17.60;100.00;102172.22;20834026;28;20048;-73
2022/10/19 16:58:24;;;;;;;3.60;2.72;;;;;;;16.89;100.00;102060.22;20828500;28;20041;-74
2022/10/19 17:08:26;;;;;;;3.55;2.47;;;;;;;17.58;100.00;102171.47;20832769;28;20056;-74
2022/10/19 17:18:48;;;;;;;2.67;2.20;;;;;;;17.56;100.00;102149.19;20827475;28;20041;-74
2022/10/19 17:28:49;;;;;;;2.78;1.90;;;;;;;17.56;100.00;102144.66;20827472;28;20045;-77
2022/10/19 17:38:52;;;;;;;4.35;2.40;;;;;;;17.58;100.00;102141.84;20833602;28;20067;-76
2022/10/19 17:48:53;;;;;;;4.18;2.25;;;;;;;17.58;100.00;102155.31;20860254;28;20041;-76
2022/10/19 17:58:56;;;;;;;4.60;2.67;;;;;;;17.56;100.00;102152.75;20853390;28;20060;-75
2022/10/19 18:08:59;;;;;;;4.75;2.50;;;;;;;17.55;100.00;102161.78;20854758;28;20135;-75
2022/10/19 18:19:01;;;;;;;5.13;2.25;;;;;;;17.35;100.00;102131.66;20870316;28;20044;-76
2022/10/19 18:29:09;;;;;;;3.65;2.25;;;;;;;17.23;100.00;102108.28;20902557;28;20072;-76
2022/10/19 18:39:12;;;;;;;5.43;2.58;;;;;;;17.43;100.00;102139.25;20881992;28;20497;-76
2022/10/19 18:49:15;;;;;;;5.85;2.42;;;;;;;17.49;100.00;102141.53;20893597;28;20045;-76
2022/10/19 18:59:17;;;;;;;5.72;2.63;;;;;;;17.50;100.00;102131.63;20894771;28;20139;-76
2022/10/19 19:09:20;;;;;;;4.03;2.60;;;;;;;17.05;100.00;102045.78;20885120;28;20136;-76
2022/10/19 19:19:24;;;;;;;4.95;2.75;;;;;;;17.48;100.00;102115.56;20884789;28;20102;-76
2022/10/19 19:29:26;;;;;;;4.63;2.42;;;;;;;17.30;100.00;102071.06;20899858;28;20056;-76
2022/10/19 19:39:28;;;;;;;3.72;2.33;;;;;;;17.47;100.00;102103.06;20882408;28;20060;-76
2022/10/19 19:49:29;;;;;;;5.05;2.30;;;;;;;17.45;100.00;102088.84;20881913;28;20052;-76
2022/10/19 19:59:31;;;;;;;4.28;2.70;;;;;;;17.38;100.00;102079.47;20823391;28;20067;-76
2022/10/19 20:09:33;;;;;;;4.63;2.50;;;;;;;17.43;100.00;102053.09;20885849;28;20051;-76
2022/10/19 20:19:34;;;;;;;5.10;2.83;;;;;;;17.45;100.00;102037.69;20872729;28;20064;-76
2022/10/19 20:29:36;;;;;;;5.65;2.50;;;;;;;17.44;100.00;102029.72;20884458;28;20095;-76
2022/10/19 20:39:37;;;;;;;4.70;2.20;;;;;;;17.43;100.00;102012.72;20883069;28;20071;-76
2022/10/19 20:49:39;;;;;;;4.10;2.33;;;;;;;17.43;100.00;101993.88;20903249;28;20068;-76
2022/10/19 20:59:42;;;;;;;5.28;2.65;;;;;;;17.11;100.00;101924.28;20888765;28;20136;-76
2022/10/19 21:09:44;;;;;;;5.55;3.25;;;;;;;17.42;100.00;101967.03;20880062;28;20128;-77
2022/10/19 21:19:45;;;;;;;5.78;2.88;;;;;;;17.22;100.00;101924.41;20878666;28;20508;-78
2022/10/19 21:29:47;;;;;;;3.25;1.92;;;;;;;17.40;100.00;101953.72;20887767;28;20057;-81
2022/10/19 21:39:48;;;;;;;4.80;2.40;;;;;;;17.39;100.00;101942.06;20877001;28;20120;-76
2022/10/19 21:49:49;;;;;;;3.20;1.80;;;;;;;17.39;100.00;101944.75;20882449;28;20188;-76
2022/10/19 21:59:51;;;;;;;3.78;2.15;;;;;;;17.38;100.00;101923.34;20839535;28;20501;-76
2022/10/19 22:09:53;;;;;;;4.32;2.35;;;;;;;17.36;100.00;101909.97;20814002;28;20547;-76
2022/10/19 22:19:54;;;;;;;2.85;2.00;;;;;;;17.28;100.00;101857.69;20805416;28;20426;-75
2022/10/19 22:29:56;;;;;;;3.03;2.08;;;;;;;17.38;100.00;101874.91;20834191;28;20068;-76
2022/10/19 22:39:57;;;;;;;2.08;1.73;;;;;;;17.21;100.00;101831.19;20912346;28;20449;-76
2022/10/19 22:49:59;;;;;;;3.05;2.10;;;;;;;17.37;100.00;101836.34;20894527;28;20505;-76
2022/10/19 23:00:00;;;;;;;4.03;1.90;;;;;;;17.37;100.00;101827.41;20899162;28;20159;-76
2022/10/19 23:10:03;;;;;;;2.05;1.65;;;;;;;17.36;100.00;101829.22;20905935;28;20053;-80
2022/10/19 23:20:05;;;;;;;2.97;1.80;;;;;;;17.35;100.00;101835.59;20893852;28;20060;-78
2022/10/19 23:30:07;;;;;;;3.15;2.00;;;;;;;17.35;100.00;101815.91;20893869;28;20144;-76
2022/10/19 23:40:09;;;;;;;3.70;1.83;;;;;;;17.34;100.00;101798.03;20880544;28;20060;-76
2022/10/19 23:50:10;;;;;;;2.60;1.58;;;;;;;17.34;100.00;101792.66;20887184;28;20048;-76
